sensor_id;sensor_type;location;lat;lon;timestamp;P1;durP1;ratioP1;P2;durP2;ratioP2
44222;SDS011;29895;48.804;9.386;2023-04-01T00:00:17;2.38;;;0.50;;
44222;SDS011;29895;48.804;9.386;2023-04-01T00:02:43;5.85;;;0.93;;
44222;SDS011;29895;48.804;9.386;2023-04-01T00:05:09;1.98;;;0.50;;
44222;SDS011;29895;48.804;9.386;2023-04-01T00:07:39;4.15;;;1.02;;
44222;SDS011;29895;48.804;9.386;2023-04-01T00:10:09;3.67;;;0.57;;
44222;SDS011;29895;48.804;9.386;2023-04-01T00:12:36;4.07;;;0.60;;
44222;SDS011;29895;48.804;9.386;2023-04-01T00:15:03;1.75;;;0.90;;
44222;SDS011;29895;48.804;9.386;2023-04-01T00:17:35;2.33;;;0.52;;
44222;SDS011;29895;48.804;9.386;2023-04-01T00:20:01;1.40;;;0.43;;
44222;SDS011;29895;48.804;9.386;2023-04-01T00:22:27;5.93;;;0.82;;
44222;SDS011;29895;48.804;9.386;2023-04-01T00:24:53;4.90;;;0.73;;
44222;SDS011;29895;48.804;9.386;2023-04-01T00:27:19;3.42;;;0.60;;
44222;SDS011;29895;48.804;9.386;2023-04-01T00:29:45;4.07;;;0.90;;
44222;SDS011;29895;48.804;9.386;2023-04-01T00:32:13;4.53;;;1.00;;
44222;SDS011;29895;48.804;9.386;2023-04-01T00:34:39;4.88;;;0.50;;
44222;SDS011;29895;48.804;9.386;2023-04-01T00:37:05;5.43;;;0.75;;
44222;SDS011;29895;48.804;9.386;2023-04-01T00:39:32;5.47;;;0.90;;
44222;SDS011;29895;48.804;9.386;2023-04-01T00:41:59;4.38;;;1.05;;
44222;SDS011;29895;48.804;9.386;2023-04-01T00:44:27;3.25;;;0.93;;
44222;SDS011;29895;48.804;9.386;2023-04-01T00:46:58;2.78;;;0.95;;
44222;SDS011;29895;48.804;9.386;2023-04-01T00:49:29;3.05;;;0.60;;
44222;SDS011;29895;48.804;9.386;2023-04-01T00:51:59;6.40;;;1.02;;
44222;SDS011;29895;48.804;9.386;2023-04-01T00:54:27;3.65;;;0.60;;
44222;SDS011;29895;48.804;9.386;2023-04-01T00:57:02;1.20;;;0.50;;
44222;SDS011;29895;48.804;9.386;2023-04-01T00:59:39;3.92;;;0.70;;
44222;SDS011;29895;48.804;9.386;2023-04-01T01:02:08;4.22;;;0.70;;
44222;SDS011;29895;48.804;9.386;2023-04-01T01:04:37;3.55;;;0.80;;
44222;SDS011;29895;48.804;9.386;2023-04-01T01:07:06;3.67;;;0.88;;
44222;SDS011;29895;48.804;9.386;2023-04-01T01:09:43;1.38;;;0.50;;
44222;SDS011;29895;48.804;9.386;2023-04-01T01:15:23;1.95;;;0.73;;
44222;SDS011;29895;48.804;9.386;2023-04-01T01:29:07;2.28;;;0.73;;
44222;SDS011;29895;48.804;9.386;2023-04-01T01:37:57;2.70;;;1.00;;
44222;SDS011;29895;48.804;9.386;2023-04-01T01:40:26;5.40;;;1.40;;
44222;SDS011;29895;48.804;9.386;2023-04-01T01:42:55;4.15;;;0.50;;
44222;SDS011;29895;48.804;9.386;2023-04-01T01:45:25;5.40;;;1.13;;
44222;SDS011;29895;48.804;9.386;2023-04-01T01:47:52;4.38;;;0.80;;
44222;SDS011;29895;48.804;9.386;2023-04-01T01:50:19;4.05;;;0.65;;
44222;SDS011;29895;48.804;9.386;2023-04-01T01:52:47;2.45;;;0.93;;
44222;SDS011;29895;48.804;9.386;2023-04-01T01:58:04;2.08;;;0.50;;
44222;SDS011;29895;48.804;9.386;2023-04-01T02:00:43;4.28;;;0.60;;
44222;SDS011;29895;48.804;9.386;2023-04-01T02:03:12;2.78;;;0.57;;
44222;SDS011;29895;48.804;9.386;2023-04-01T02:05:39;3.45;;;0.60;;
44222;SDS011;29895;48.804;9.386;2023-04-01T02:08:08;5.03;;;0.63;;
44222;SDS011;29895;48.804;9.386;2023-04-01T02:10:55;3.28;;;0.57;;
44222;SDS011;29895;48.804;9.386;2023-04-01T02:13:35;3.28;;;0.40;;
44222;SDS011;29895;48.804;9.386;2023-04-01T02:16:13;2.25;;;0.55;;
44222;SDS011;29895;48.804;9.386;2023-04-01T02:18:46;1.05;;;0.50;;
44222;SDS011;29895;48.804;9.386;2023-04-01T02:21:15;5.05;;;0.88;;
44222;SDS011;29895;48.804;9.386;2023-04-01T02:23:43;1.63;;;0.55;;
44222;SDS011;29895;48.804;9.386;2023-04-01T02:26:10;2.67;;;0.60;;
44222;SDS011;29895;48.804;9.386;2023-04-01T02:28:37;2.35;;;0.50;;
44222;SDS011;29895;48.804;9.386;2023-04-01T02:31:03;4.57;;;0.40;;
44222;SDS011;29895;48.804;9.386;2023-04-01T02:33:30;4.10;;;0.98;;
44222;SDS011;29895;48.804;9.386;2023-04-01T02:35:57;6.85;;;0.40;;
44222;SDS011;29895;48.804;9.386;2023-04-01T02:38:23;0.32;;;0.00;;
44222;SDS011;29895;48.804;9.386;2023-04-01T02:40:50;3.22;;;0.40;;
44222;SDS011;29895;48.804;9.386;2023-04-01T02:43:21;2.88;;;0.40;;
44222;SDS011;29895;48.804;9.386;2023-04-01T02:45:47;0.47;;;0.20;;
44222;SDS011;29895;48.804;9.386;2023-04-01T02:48:12;2.67;;;0.35;;
44222;SDS011;29895;48.804;9.386;2023-04-01T02:50:39;2.15;;;0.30;;
44222;SDS011;29895;48.804;9.386;2023-04-01T02:53:05;1.02;;;0.13;;
44222;SDS011;29895;48.804;9.386;2023-04-01T02:55:31;1.35;;;0.20;;
44222;SDS011;29895;48.804;9.386;2023-04-01T02:57:57;0.73;;;0.10;;
44222;SDS011;29895;48.804;9.386;2023-04-01T03:00:23;2.40;;;0.20;;
44222;SDS011;29895;48.804;9.386;2023-04-01T03:02:50;0.30;;;0.10;;
44222;SDS011;29895;48.804;9.386;2023-04-01T03:05:15;2.53;;;0.22;;
44222;SDS011;29895;48.804;9.386;2023-04-01T03:07:41;0.50;;;0.30;;
44222;SDS011;29895;48.804;9.386;2023-04-01T03:10:07;0.43;;;0.30;;
44222;SDS011;29895;48.804;9.386;2023-04-01T03:12:33;1.35;;;0.40;;
44222;SDS011;29895;48.804;9.386;2023-04-01T03:14:59;0.73;;;0.40;;
44222;SDS011;29895;48.804;9.386;2023-04-01T03:17:24;1.15;;;0.28;;
44222;SDS011;29895;48.804;9.386;2023-04-01T03:19:50;2.75;;;0.25;;
44222;SDS011;29895;48.804;9.386;2023-04-01T03:22:16;0.65;;;0.25;;
44222;SDS011;29895;48.804;9.386;2023-04-01T03:24:43;0.25;;;0.10;;
44222;SDS011;29895;48.804;9.386;2023-04-01T03:27:09;1.48;;;0.15;;
44222;SDS011;29895;48.804;9.386;2023-04-01T03:29:35;2.25;;;0.22;;
44222;SDS011;29895;48.804;9.386;2023-04-01T03:32:01;1.95;;;0.20;;
44222;SDS011;29895;48.804;9.386;2023-04-01T03:34:26;2.50;;;0.38;;
44222;SDS011;29895;48.804;9.386;2023-04-01T03:36:52;1.30;;;0.22;;
44222;SDS011;29895;48.804;9.386;2023-04-01T03:39:18;1.88;;;0.22;;
44222;SDS011;29895;48.804;9.386;2023-04-01T03:41:44;2.20;;;0.28;;
44222;SDS011;29895;48.804;9.386;2023-04-01T03:44:11;1.55;;;0.22;;
44222;SDS011;29895;48.804;9.386;2023-04-01T03:46:37;4.10;;;0.30;;
44222;SDS011;29895;48.804;9.386;2023-04-01T03:49:02;2.30;;;0.30;;
44222;SDS011;29895;48.804;9.386;2023-04-01T03:51:36;0.52;;;0.30;;
44222;SDS011;29895;48.804;9.386;2023-04-01T03:54:06;1.75;;;0.50;;
44222;SDS011;29895;48.804;9.386;2023-04-01T03:56:32;2.70;;;0.30;;
44222;SDS011;29895;48.804;9.386;2023-04-01T03:58:57;1.33;;;0.10;;
44222;SDS011;29895;48.804;9.386;2023-04-01T04:01:26;1.85;;;0.32;;
44222;SDS011;29895;48.804;9.386;2023-04-01T04:03:51;0.63;;;0.30;;
44222;SDS011;29895;48.804;9.386;2023-04-01T04:06:17;0.82;;;0.32;;
44222;SDS011;29895;48.804;9.386;2023-04-01T04:08:44;0.82;;;0.10;;
44222;SDS011;29895;48.804;9.386;2023-04-01T04:11:10;3.17;;;0.30;;
44222;SDS011;29895;48.804;9.386;2023-04-01T04:13:36;1.48;;;0.25;;
44222;SDS011;29895;48.804;9.386;2023-04-01T04:16:05;1.80;;;0.10;;
44222;SDS011;29895;48.804;9.386;2023-04-01T04:18:31;1.85;;;0.20;;
44222;SDS011;29895;48.804;9.386;2023-04-01T04:20:57;2.00;;;0.15;;
44222;SDS011;29895;48.804;9.386;2023-04-01T04:23:23;0.50;;;0.22;;
44222;SDS011;29895;48.804;9.386;2023-04-01T04:28:28;0.50;;;0.20;;
44222;SDS011;29895;48.804;9.386;2023-04-01T04:30:54;0.85;;;0.20;;
44222;SDS011;29895;48.804;9.386;2023-04-01T04:33:21;1.58;;;0.22;;
44222;SDS011;29895;48.804;9.386;2023-04-01T04:35:47;2.17;;;0.20;;
44222;SDS011;29895;48.804;9.386;2023-04-01T04:38:13;0.70;;;0.20;;
44222;SDS011;29895;48.804;9.386;2023-04-01T04:40:39;2.03;;;0.20;;
44222;SDS011;29895;48.804;9.386;2023-04-01T04:43:05;2.38;;;0.28;;
44222;SDS011;29895;48.804;9.386;2023-04-01T04:45:31;2.20;;;0.20;;
44222;SDS011;29895;48.804;9.386;2023-04-01T04:47:58;0.68;;;0.20;;
44222;SDS011;29895;48.804;9.386;2023-04-01T04:50:24;0.47;;;0.20;;
44222;SDS011;29895;48.804;9.386;2023-04-01T04:52:50;0.63;;;0.20;;
44222;SDS011;29895;48.804;9.386;2023-04-01T04:55:16;1.48;;;0.30;;
44222;SDS011;29895;48.804;9.386;2023-04-01T04:57:42;0.57;;;0.10;;
44222;SDS011;29895;48.804;9.386;2023-04-01T05:00:08;2.75;;;0.43;;
44222;SDS011;29895;48.804;9.386;2023-04-01T05:02:35;3.42;;;0.20;;
44222;SDS011;29895;48.804;9.386;2023-04-01T05:05:01;2.28;;;0.63;;
44222;SDS011;29895;48.804;9.386;2023-04-01T05:07:26;1.50;;;0.32;;
44222;SDS011;29895;48.804;9.386;2023-04-01T05:09:52;2.08;;;0.28;;
44222;SDS011;29895;48.804;9.386;2023-04-01T05:12:18;2.35;;;0.50;;
44222;SDS011;29895;48.804;9.386;2023-04-01T05:14:43;3.53;;;0.50;;
44222;SDS011;29895;48.804;9.386;2023-04-01T05:17:09;2.25;;;0.50;;
44222;SDS011;29895;48.804;9.386;2023-04-01T05:19:36;3.20;;;0.38;;
44222;SDS011;29895;48.804;9.386;2023-04-01T05:22:02;3.35;;;0.45;;
44222;SDS011;29895;48.804;9.386;2023-04-01T05:24:28;4.72;;;0.57;;
44222;SDS011;29895;48.804;9.386;2023-04-01T05:26:54;2.15;;;0.40;;
44222;SDS011;29895;48.804;9.386;2023-04-01T05:29:21;0.77;;;0.30;;
44222;SDS011;29895;48.804;9.386;2023-04-01T05:31:46;2.88;;;0.60;;
44222;SDS011;29895;48.804;9.386;2023-04-01T05:34:13;4.22;;;1.10;;
44222;SDS011;29895;48.804;9.386;2023-04-01T05:36:39;2.78;;;0.80;;
44222;SDS011;29895;48.804;9.386;2023-04-01T05:39:06;4.85;;;0.68;;
44222;SDS011;29895;48.804;9.386;2023-04-01T05:41:34;3.22;;;0.50;;
44222;SDS011;29895;48.804;9.386;2023-04-01T05:44:00;3.42;;;0.35;;
44222;SDS011;29895;48.804;9.386;2023-04-01T05:46:26;3.00;;;0.55;;
44222;SDS011;29895;48.804;9.386;2023-04-01T05:48:52;1.63;;;0.50;;
44222;SDS011;29895;48.804;9.386;2023-04-01T05:51:18;10.60;;;0.90;;
44222;SDS011;29895;48.804;9.386;2023-04-01T05:53:43;3.35;;;0.82;;
44222;SDS011;29895;48.804;9.386;2023-04-01T05:56:09;3.13;;;0.30;;
44222;SDS011;29895;48.804;9.386;2023-04-01T05:58:36;2.25;;;0.40;;
44222;SDS011;29895;48.804;9.386;2023-04-01T06:01:06;3.65;;;0.60;;
44222;SDS011;29895;48.804;9.386;2023-04-01T06:03:33;1.10;;;0.30;;
44222;SDS011;29895;48.804;9.386;2023-04-01T06:05:59;1.42;;;0.60;;
44222;SDS011;29895;48.804;9.386;2023-04-01T06:08:26;9.38;;;1.35;;
44222;SDS011;29895;48.804;9.386;2023-04-01T06:17:30;2.80;;;0.93;;
44222;SDS011;29895;48.804;9.386;2023-04-01T06:20:34;1.45;;;0.43;;
44222;SDS011;29895;48.804;9.386;2023-04-01T06:29:22;5.15;;;0.50;;
44222;SDS011;29895;48.804;9.386;2023-04-01T06:32:15;7.88;;;1.50;;
44222;SDS011;29895;48.804;9.386;2023-04-01T06:51:34;3.97;;;0.30;;
44222;SDS011;29895;48.804;9.386;2023-04-01T06:54:21;4.72;;;0.60;;
44222;SDS011;29895;48.804;9.386;2023-04-01T06:57:00;4.75;;;0.60;;
44222;SDS011;29895;48.804;9.386;2023-04-01T06:59:32;1.45;;;0.30;;
44222;SDS011;29895;48.804;9.386;2023-04-01T07:02:45;3.13;;;0.30;;
44222;SDS011;29895;48.804;9.386;2023-04-01T07:04:50;2.20;;;0.50;;
44222;SDS011;29895;48.804;9.386;2023-04-01T07:08:01;1.52;;;0.30;;
44222;SDS011;29895;48.804;9.386;2023-04-01T07:10:22;3.55;;;0.80;;
44222;SDS011;29895;48.804;9.386;2023-04-01T07:12:54;0.73;;;0.40;;
44222;SDS011;29895;48.804;9.386;2023-04-01T07:15:42;0.88;;;0.40;;
44222;SDS011;29895;48.804;9.386;2023-04-01T07:18:12;0.60;;;0.30;;
44222;SDS011;29895;48.804;9.386;2023-04-01T07:20:42;4.43;;;1.38;;
44222;SDS011;29895;48.804;9.386;2023-04-01T07:23:24;2.33;;;0.22;;
44222;SDS011;29895;48.804;9.386;2023-04-01T07:26:00;1.60;;;0.45;;
44222;SDS011;29895;48.804;9.386;2023-04-01T07:28:39;1.90;;;0.60;;
44222;SDS011;29895;48.804;9.386;2023-04-01T07:34:26;1.17;;;0.25;;
44222;SDS011;29895;48.804;9.386;2023-04-01T07:45:09;0.70;;;0.30;;
44222;SDS011;29895;48.804;9.386;2023-04-01T07:50:26;3.60;;;1.05;;
44222;SDS011;29895;48.804;9.386;2023-04-01T08:01:06;2.92;;;0.30;;
44222;SDS011;29895;48.804;9.386;2023-04-01T08:04:03;1.85;;;0.40;;
44222;SDS011;29895;48.804;9.386;2023-04-01T08:06:56;3.75;;;0.50;;
44222;SDS011;29895;48.804;9.386;2023-04-01T08:12:46;2.28;;;0.38;;
44222;SDS011;29895;48.804;9.386;2023-04-01T08:15:40;2.22;;;0.40;;
44222;SDS011;29895;48.804;9.386;2023-04-01T08:18:39;1.48;;;0.45;;
44222;SDS011;29895;48.804;9.386;2023-04-01T08:21:33;1.60;;;0.30;;
44222;SDS011;29895;48.804;9.386;2023-04-01T08:24:29;1.45;;;0.38;;
44222;SDS011;29895;48.804;9.386;2023-04-01T08:26:53;2.30;;;0.22;;
44222;SDS011;29895;48.804;9.386;2023-04-01T08:29:23;2.85;;;0.60;;
44222;SDS011;29895;48.804;9.386;2023-04-01T08:32:06;1.58;;;0.43;;
44222;SDS011;29895;48.804;9.386;2023-04-01T08:34:38;1.02;;;0.30;;
44222;SDS011;29895;48.804;9.386;2023-04-01T08:37:08;3.60;;;0.60;;
44222;SDS011;29895;48.804;9.386;2023-04-01T08:42:15;1.80;;;0.70;;
44222;SDS011;29895;48.804;9.386;2023-04-01T08:56:01;2.70;;;0.70;;
44222;SDS011;29895;48.804;9.386;2023-04-01T09:04:22;1.67;;;0.30;;
44222;SDS011;29895;48.804;9.386;2023-04-01T09:07:03;2.58;;;0.50;;
44222;SDS011;29895;48.804;9.386;2023-04-01T09:10:04;1.98;;;0.40;;
44222;SDS011;29895;48.804;9.386;2023-04-01T09:21:33;2.45;;;0.20;;
44222;SDS011;29895;48.804;9.386;2023-04-01T09:32:59;1.77;;;0.50;;
44222;SDS011;29895;48.804;9.386;2023-04-01T09:36:21;1.95;;;0.70;;
44222;SDS011;29895;48.804;9.386;2023-04-01T09:41:06;1.17;;;0.55;;
44222;SDS011;29895;48.804;9.386;2023-04-01T09:52:09;2.88;;;1.10;;
44222;SDS011;29895;48.804;9.386;2023-04-01T10:22:32;1.63;;;0.30;;
44222;SDS011;29895;48.804;9.386;2023-04-01T10:37:23;0.77;;;0.20;;
44222;SDS011;29895;48.804;9.386;2023-04-01T10:43:21;0.28;;;0.15;;
44222;SDS011;29895;48.804;9.386;2023-04-01T10:53:43;0.17;;;0.10;;
44222;SDS011;29895;48.804;9.386;2023-04-01T11:31:04;1.13;;;0.13;;
44222;SDS011;29895;48.804;9.386;2023-04-01T11:33:53;0.30;;;0.10;;
44222;SDS011;29895;48.804;9.386;2023-04-01T11:39:03;0.63;;;0.20;;
44222;SDS011;29895;48.804;9.386;2023-04-01T11:44:51;0.45;;;0.20;;
44222;SDS011;29895;48.804;9.386;2023-04-01T11:47:21;0.40;;;0.20;;
44222;SDS011;29895;48.804;9.386;2023-04-01T12:05:58;0.30;;;0.10;;
44222;SDS011;29895;48.804;9.386;2023-04-01T12:39:06;0.38;;;0.20;;
44222;SDS011;29895;48.804;9.386;2023-04-01T12:44:52;0.10;;;0.10;;
44222;SDS011;29895;48.804;9.386;2023-04-01T12:55:40;0.10;;;0.10;;
44222;SDS011;29895;48.804;9.386;2023-04-01T13:09:35;0.10;;;0.10;;
44222;SDS011;29895;48.804;9.386;2023-04-01T13:12:23;0.10;;;0.10;;
44222;SDS011;29895;48.804;9.386;2023-04-01T13:18:31;0.32;;;0.10;;
44222;SDS011;29895;48.804;9.386;2023-04-01T13:44:17;0.13;;;0.10;;
44222;SDS011;29895;48.804;9.386;2023-04-01T13:46:23;1.95;;;0.20;;
44222;SDS011;29895;48.804;9.386;2023-04-01T13:54:26;0.20;;;0.20;;
44222;SDS011;29895;48.804;9.386;2023-04-01T14:00:19;0.75;;;0.20;;
44222;SDS011;29895;48.804;9.386;2023-04-01T14:09:08;1.60;;;0.15;;
44222;SDS011;29895;48.804;9.386;2023-04-01T14:20:02;1.13;;;0.20;;
44222;SDS011;29895;48.804;9.386;2023-04-01T14:30:35;1.10;;;0.50;;
44222;SDS011;29895;48.804;9.386;2023-04-01T14:42:23;0.47;;;0.30;;
44222;SDS011;29895;48.804;9.386;2023-04-01T14:47:58;0.38;;;0.20;;
44222;SDS011;29895;48.804;9.386;2023-04-01T14:50:45;1.65;;;0.20;;
44222;SDS011;29895;48.804;9.386;2023-04-01T14:53:28;2.95;;;0.50;;
44222;SDS011;29895;48.804;9.386;2023-04-01T14:55:57;0.90;;;0.47;;
44222;SDS011;29895;48.804;9.386;2023-04-01T14:58:27;0.75;;;0.32;;
44222;SDS011;29895;48.804;9.386;2023-04-01T15:01:12;1.23;;;0.70;;
44222;SDS011;29895;48.804;9.386;2023-04-01T15:06:23;1.83;;;0.70;;
44222;SDS011;29895;48.804;9.386;2023-04-01T15:09:13;2.50;;;0.68;;
44222;SDS011;29895;48.804;9.386;2023-04-01T15:15:12;1.20;;;0.50;;
44222;SDS011;29895;48.804;9.386;2023-04-01T15:17:48;1.00;;;0.80;;
44222;SDS011;29895;48.804;9.386;2023-04-01T15:28:44;0.20;;;0.00;;
44222;SDS011;29895;48.804;9.386;2023-04-01T15:52:49;0.88;;;0.30;;
44222;SDS011;29895;48.804;9.386;2023-04-01T15:58:17;0.30;;;0.20;;
44222;SDS011;29895;48.804;9.386;2023-04-01T16:00:53;0.73;;;0.30;;
44222;SDS011;29895;48.804;9.386;2023-04-01T16:03:40;0.35;;;0.20;;
44222;SDS011;29895;48.804;9.386;2023-04-01T16:06:38;0.60;;;0.28;;
44222;SDS011;29895;48.804;9.386;2023-04-01T16:12:10;0.90;;;0.50;;
44222;SDS011;29895;48.804;9.386;2023-04-01T16:20:39;4.28;;;0.50;;
44222;SDS011;29895;48.804;9.386;2023-04-01T16:28:38;1.20;;;0.52;;
44222;SDS011;29895;48.804;9.386;2023-04-01T16:31:15;0.70;;;0.40;;
44222;SDS011;29895;48.804;9.386;2023-04-01T16:36:37;3.13;;;0.50;;
44222;SDS011;29895;48.804;9.386;2023-04-01T16:39:11;3.95;;;0.50;;
44222;SDS011;29895;48.804;9.386;2023-04-01T16:44:31;1.05;;;0.20;;
44222;SDS011;29895;48.804;9.386;2023-04-01T16:47:32;1.90;;;0.20;;
44222;SDS011;29895;48.804;9.386;2023-04-01T16:50:20;1.50;;;0.43;;
44222;SDS011;29895;48.804;9.386;2023-04-01T16:55:55;0.93;;;0.13;;
44222;SDS011;29895;48.804;9.386;2023-04-01T16:58:26;1.38;;;0.35;;
44222;SDS011;29895;48.804;9.386;2023-04-01T17:03:45;0.80;;;0.22;;
44222;SDS011;29895;48.804;9.386;2023-04-01T17:06:18;0.75;;;0.50;;
44222;SDS011;29895;48.804;9.386;2023-04-01T17:08:53;1.23;;;0.50;;
44222;SDS011;29895;48.804;9.386;2023-04-01T17:14:51;1.10;;;0.52;;
44222;SDS011;29895;48.804;9.386;2023-04-01T17:30:47;3.70;;;0.60;;
44222;SDS011;29895;48.804;9.386;2023-04-01T17:41:54;1.50;;;0.52;;
44222;SDS011;29895;48.804;9.386;2023-04-01T18:06:33;2.08;;;1.10;;
44222;SDS011;29895;48.804;9.386;2023-04-01T18:23:00;3.58;;;0.77;;
44222;SDS011;29895;48.804;9.386;2023-04-01T18:25:47;2.50;;;0.82;;
44222;SDS011;29895;48.804;9.386;2023-04-01T18:30:51;3.58;;;1.38;;
44222;SDS011;29895;48.804;9.386;2023-04-01T18:33:56;7.75;;;2.17;;
44222;SDS011;29895;48.804;9.386;2023-04-01T18:37:02;5.63;;;1.45;;
44222;SDS011;29895;48.804;9.386;2023-04-01T18:42:34;8.43;;;2.85;;
44222;SDS011;29895;48.804;9.386;2023-04-01T18:45:19;13.52;;;3.47;;
44222;SDS011;29895;48.804;9.386;2023-04-01T18:48:42;10.15;;;3.80;;
44222;SDS011;29895;48.804;9.386;2023-04-01T18:51:21;7.40;;;2.75;;
44222;SDS011;29895;48.804;9.386;2023-04-01T18:54:07;9.30;;;2.97;;
44222;SDS011;29895;48.804;9.386;2023-04-01T18:56:49;5.40;;;1.30;;
44222;SDS011;29895;48.804;9.386;2023-04-01T18:59:35;6.97;;;1.40;;
44222;SDS011;29895;48.804;9.386;2023-04-01T19:10:12;5.85;;;1.67;;
44222;SDS011;29895;48.804;9.386;2023-04-01T19:13:18;2.10;;;0.70;;
44222;SDS011;29895;48.804;9.386;2023-04-01T19:21:56;3.70;;;1.15;;
44222;SDS011;29895;48.804;9.386;2023-04-01T19:30:02;4.10;;;1.90;;
44222;SDS011;29895;48.804;9.386;2023-04-01T19:32:55;9.25;;;2.08;;
44222;SDS011;29895;48.804;9.386;2023-04-01T19:43:44;4.40;;;1.50;;
44222;SDS011;29895;48.804;9.386;2023-04-01T19:46:28;4.57;;;2.05;;
44222;SDS011;29895;48.804;9.386;2023-04-01T19:49:28;3.72;;;1.08;;
44222;SDS011;29895;48.804;9.386;2023-04-01T19:54:51;3.95;;;1.60;;
44222;SDS011;29895;48.804;9.386;2023-04-01T20:00:43;6.10;;;1.67;;
44222;SDS011;29895;48.804;9.386;2023-04-01T20:03:25;3.15;;;1.42;;
44222;SDS011;29895;48.804;9.386;2023-04-01T20:06:09;6.32;;;1.67;;
44222;SDS011;29895;48.804;9.386;2023-04-01T20:17:01;2.35;;;1.20;;
44222;SDS011;29895;48.804;9.386;2023-04-01T20:24:47;3.47;;;1.10;;
44222;SDS011;29895;48.804;9.386;2023-04-01T20:29:55;1.85;;;1.15;;
44222;SDS011;29895;48.804;9.386;2023-04-01T20:37:44;6.75;;;3.03;;
44222;SDS011;29895;48.804;9.386;2023-04-01T20:53:57;0.90;;;0.52;;
44222;SDS011;29895;48.804;9.386;2023-04-01T20:59:19;1.42;;;0.35;;
44222;SDS011;29895;48.804;9.386;2023-04-01T21:24:23;1.40;;;0.50;;
44222;SDS011;29895;48.804;9.386;2023-04-01T21:37:44;0.85;;;0.50;;
44222;SDS011;29895;48.804;9.386;2023-04-01T21:43:15;1.70;;;0.68;;
44222;SDS011;29895;48.804;9.386;2023-04-01T21:57:57;2.53;;;0.70;;
44222;SDS011;29895;48.804;9.386;2023-04-01T22:00:39;1.58;;;0.73;;
44222;SDS011;29895;48.804;9.386;2023-04-01T22:05:37;1.70;;;0.60;;
44222;SDS011;29895;48.804;9.386;2023-04-01T22:14:05;3.58;;;0.77;;
44222;SDS011;29895;48.804;9.386;2023-04-01T22:16:37;1.13;;;0.60;;
44222;SDS011;29895;48.804;9.386;2023-04-01T22:19:16;1.38;;;0.50;;
44222;SDS011;29895;48.804;9.386;2023-04-01T22:22:18;1.05;;;0.40;;
44222;SDS011;29895;48.804;9.386;2023-04-01T22:24:55;1.48;;;0.60;;
44222;SDS011;29895;48.804;9.386;2023-04-01T22:32:37;0.82;;;0.40;;
44222;SDS011;29895;48.804;9.386;2023-04-01T22:43:45;1.27;;;0.50;;
44222;SDS011;29895;48.804;9.386;2023-04-01T22:46:20;3.03;;;0.57;;
44222;SDS011;29895;48.804;9.386;2023-04-01T22:49:17;0.70;;;0.35;;
44222;SDS011;29895;48.804;9.386;2023-04-01T22:52:07;0.45;;;0.30;;
44222;SDS011;29895;48.804;9.386;2023-04-01T22:54:54;0.63;;;0.32;;
44222;SDS011;29895;48.804;9.386;2023-04-01T22:57:32;2.83;;;0.60;;
44222;SDS011;29895;48.804;9.386;2023-04-01T23:00:27;0.90;;;0.20;;
44222;SDS011;29895;48.804;9.386;2023-04-01T23:03:41;2.10;;;0.80;;
44222;SDS011;29895;48.804;9.386;2023-04-01T23:05:58;2.05;;;0.40;;
44222;SDS011;29895;48.804;9.386;2023-04-01T23:11:05;1.00;;;0.50;;
44222;SDS011;29895;48.804;9.386;2023-04-01T23:13:41;1.63;;;0.40;;
44222;SDS011;29895;48.804;9.386;2023-04-01T23:16:18;1.15;;;0.75;;
44222;SDS011;29895;48.804;9.386;2023-04-01T23:18:58;0.82;;;0.40;;
44222;SDS011;29895;48.804;9.386;2023-04-01T23:21:35;1.92;;;0.40;;
44222;SDS011;29895;48.804;9.386;2023-04-01T23:29:34;0.50;;;0.25;;
44222;SDS011;29895;48.804;9.386;2023-04-01T23:32:04;1.70;;;0.50;;
44222;SDS011;29895;48.804;9.386;2023-04-01T23:34:31;0.80;;;0.30;;
44222;SDS011;29895;48.804;9.386;2023-04-01T23:37:03;2.03;;;0.50;;
44222;SDS011;29895;48.804;9.386;2023-04-01T23:42:22;0.98;;;0.50;;
44222;SDS011;29895;48.804;9.386;2023-04-01T23:45:16;0.93;;;0.30;;
44222;SDS011;29895;48.804;9.386;2023-04-01T23:47:45;0.93;;;0.43;;
44222;SDS011;29895;48.804;9.386;2023-04-01T23:50:17;1.23;;;0.43;;
44222;SDS011;29895;48.804;9.386;2023-04-01T23:52:47;1.05;;;0.30;;
44222;SDS011;29895;48.804;9.386;2023-04-01T23:55:17;0.75;;;0.30;;
44222;SDS011;29895;48.804;9.386;2023-04-01T23:58:00;0.90;;;0.25;;
